Weather at Black River Falls Area Airport

Public forecast

Using degrees Fahrenheit for public forecast. Weather courtesy of forecast.io.

Current aviation weather report (METAR) for Black River Falls Area Airport

2024/02/23 02:55 (retrieved 13 minutes ago)

KBCK 230255Z AUTO 27005KT 10SM CLR 06/00 A2972 RMK AO2 T00550000

Closest aviation forecast (TAF) to Black River Falls Area Airport

Forecast is more than 6 hours old.

Closest forecast is Grissom Air Reserve Base, 300.2 nm (556.0 km) SE.

2024/02/22 21:03 (retrieved 6 hours ago)

TAF KGUS 222100Z 2221/2403 36009KT 9999 SCT007 OVC050 QNH2962INS TEMPO 2221/2302 OVC007 BECMG 2301/2302 VRB06KT 9999 SCT060 QNH2964INS BECMG 2314/2315 30010G15KT 9999 BKN015 OVC025 QNH2971INS BECMG 2400/2401 36009KT 9999 BKN025 QNH2978INS TX10/2221Z TN02/2312Z LAST NO AMDS AFT 2304 NEXT 2313